sensor_id;sensor_type;location;lat;lon;timestamp;temperature;humidity
11617;DHT22;5864;52.998;9.068;2023-01-08T00:00:23;8.60;99.90
11617;DHT22;5864;52.998;9.068;2023-01-08T00:02:51;8.60;99.90
11617;DHT22;5864;52.998;9.068;2023-01-08T00:05:18;8.60;99.90
11617;DHT22;5864;52.998;9.068;2023-01-08T00:07:47;8.70;99.90
11617;DHT22;5864;52.998;9.068;2023-01-08T00:10:15;8.70;99.90
11617;DHT22;5864;52.998;9.068;2023-01-08T00:12:42;8.80;99.90
11617;DHT22;5864;52.998;9.068;2023-01-08T00:15:10;8.80;99.90
11617;DHT22;5864;52.998;9.068;2023-01-08T00:17:37;8.80;99.90
11617;DHT22;5864;52.998;9.068;2023-01-08T00:20:05;8.80;99.90
11617;DHT22;5864;52.998;9.068;2023-01-08T00:22:33;8.80;99.90
11617;DHT22;5864;52.998;9.068;2023-01-08T00:25:01;8.80;99.90
11617;DHT22;5864;52.998;9.068;2023-01-08T00:27:29;8.80;99.90
11617;DHT22;5864;52.998;9.068;2023-01-08T00:29:56;8.80;99.90
11617;DHT22;5864;52.998;9.068;2023-01-08T00:32:24;8.90;99.90
11617;DHT22;5864;52.998;9.068;2023-01-08T00:34:51;8.90;99.90
11617;DHT22;5864;52.998;9.068;2023-01-08T00:37:19;8.90;99.90
11617;DHT22;5864;52.998;9.068;2023-01-08T00:39:47;8.90;99.90
11617;DHT22;5864;52.998;9.068;2023-01-08T00:42:15;8.90;99.90
11617;DHT22;5864;52.998;9.068;2023-01-08T00:44:43;8.90;99.90
11617;DHT22;5864;52.998;9.068;2023-01-08T00:47:11;8.90;99.90
11617;DHT22;5864;52.998;9.068;2023-01-08T00:49:39;8.90;99.90
11617;DHT22;5864;52.998;9.068;2023-01-08T00:52:07;9.00;99.90
11617;DHT22;5864;52.998;9.068;2023-01-08T00:54:34;9.00;99.90
11617;DHT22;5864;52.998;9.068;2023-01-08T00:57:01;9.00;99.90
11617;DHT22;5864;52.998;9.068;2023-01-08T00:59:30;9.00;99.90
11617;DHT22;5864;52.998;9.068;2023-01-08T01:01:58;9.00;99.90
11617;DHT22;5864;52.998;9.068;2023-01-08T01:04:25;9.00;99.90
11617;DHT22;5864;52.998;9.068;2023-01-08T01:06:53;9.00;99.90
11617;DHT22;5864;52.998;9.068;2023-01-08T01:09:20;9.10;99.90
11617;DHT22;5864;52.998;9.068;2023-01-08T01:11:47;9.10;99.90
11617;DHT22;5864;52.998;9.068;2023-01-08T01:14:15;9.10;99.90
11617;DHT22;5864;52.998;9.068;2023-01-08T01:16:44;9.10;99.90
11617;DHT22;5864;52.998;9.068;2023-01-08T01:19:13;9.20;99.90
11617;DHT22;5864;52.998;9.068;2023-01-08T01:21:41;9.20;99.90
11617;DHT22;5864;52.998;9.068;2023-01-08T01:24:10;9.20;99.90
11617;DHT22;5864;52.998;9.068;2023-01-08T01:26:39;9.10;99.90
11617;DHT22;5864;52.998;9.068;2023-01-08T01:29:07;9.10;99.90
11617;DHT22;5864;52.998;9.068;2023-01-08T01:31:34;9.20;99.90
11617;DHT22;5864;52.998;9.068;2023-01-08T01:34:03;9.20;99.90
11617;DHT22;5864;52.998;9.068;2023-01-08T01:36:30;9.20;99.90
11617;DHT22;5864;52.998;9.068;2023-01-08T01:38:58;9.10;99.90
11617;DHT22;5864;52.998;9.068;2023-01-08T01:41:27;9.20;99.90
11617;DHT22;5864;52.998;9.068;2023-01-08T01:43:56;9.10;99.90
11617;DHT22;5864;52.998;9.068;2023-01-08T01:46:36;9.10;99.90
11617;DHT22;5864;52.998;9.068;2023-01-08T01:49:09;9.20;99.90
11617;DHT22;5864;52.998;9.068;2023-01-08T01:51:39;9.20;99.90
11617;DHT22;5864;52.998;9.068;2023-01-08T01:54:10;9.20;99.90
11617;DHT22;5864;52.998;9.068;2023-01-08T01:56:39;9.20;99.90
11617;DHT22;5864;52.998;9.068;2023-01-08T01:59:07;9.10;99.90
11617;DHT22;5864;52.998;9.068;2023-01-08T02:01:35;9.30;99.90
11617;DHT22;5864;52.998;9.068;2023-01-08T02:04:08;9.30;99.90
11617;DHT22;5864;52.998;9.068;2023-01-08T02:06:38;9.30;99.90
11617;DHT22;5864;52.998;9.068;2023-01-08T02:09:14;9.20;99.90
11617;DHT22;5864;52.998;9.068;2023-01-08T02:11:48;9.20;99.90
11617;DHT22;5864;52.998;9.068;2023-01-08T02:14:41;9.30;99.90
11617;DHT22;5864;52.998;9.068;2023-01-08T02:17:11;9.30;99.90
11617;DHT22;5864;52.998;9.068;2023-01-08T02:19:45;9.30;99.90
11617;DHT22;5864;52.998;9.068;2023-01-08T02:22:24;9.40;99.90
11617;DHT22;5864;52.998;9.068;2023-01-08T02:24:58;9.30;99.90
11617;DHT22;5864;52.998;9.068;2023-01-08T02:27:31;9.30;99.90
11617;DHT22;5864;52.998;9.068;2023-01-08T02:30:01;9.30;99.90
11617;DHT22;5864;52.998;9.068;2023-01-08T02:32:33;9.30;99.90
11617;DHT22;5864;52.998;9.068;2023-01-08T02:35:02;9.30;99.90
11617;DHT22;5864;52.998;9.068;2023-01-08T02:37:31;9.30;99.90
11617;DHT22;5864;52.998;9.068;2023-01-08T02:40:05;9.30;99.90
11617;DHT22;5864;52.998;9.068;2023-01-08T02:42:39;9.30;99.90
11617;DHT22;5864;52.998;9.068;2023-01-08T02:45:16;9.30;99.90
11617;DHT22;5864;52.998;9.068;2023-01-08T02:47:52;9.30;99.90
11617;DHT22;5864;52.998;9.068;2023-01-08T02:50:24;9.30;99.90
11617;DHT22;5864;52.998;9.068;2023-01-08T02:52:57;9.30;99.90
11617;DHT22;5864;52.998;9.068;2023-01-08T02:55:29;9.30;99.90
11617;DHT22;5864;52.998;9.068;2023-01-08T02:57:59;9.30;99.90
11617;DHT22;5864;52.998;9.068;2023-01-08T03:00:27;9.40;99.90
11617;DHT22;5864;52.998;9.068;2023-01-08T03:03:00;9.30;99.90
11617;DHT22;5864;52.998;9.068;2023-01-08T03:05:29;9.40;99.90
11617;DHT22;5864;52.998;9.068;2023-01-08T03:07:57;9.40;99.90
11617;DHT22;5864;52.998;9.068;2023-01-08T03:10:29;9.40;99.90
11617;DHT22;5864;52.998;9.068;2023-01-08T03:13:01;9.40;99.90
11617;DHT22;5864;52.998;9.068;2023-01-08T03:15:33;9.30;99.90
11617;DHT22;5864;52.998;9.068;2023-01-08T03:18:06;9.30;99.90
11617;DHT22;5864;52.998;9.068;2023-01-08T03:20:37;9.30;99.90
11617;DHT22;5864;52.998;9.068;2023-01-08T03:23:07;9.30;99.90
11617;DHT22;5864;52.998;9.068;2023-01-08T03:25:38;9.30;99.90
11617;DHT22;5864;52.998;9.068;2023-01-08T03:28:12;9.30;99.90
11617;DHT22;5864;52.998;9.068;2023-01-08T03:30:41;9.30;99.90
11617;DHT22;5864;52.998;9.068;2023-01-08T03:33:11;9.30;99.90
11617;DHT22;5864;52.998;9.068;2023-01-08T03:35:44;9.20;99.90
11617;DHT22;5864;52.998;9.068;2023-01-08T03:38:16;9.30;99.90
11617;DHT22;5864;52.998;9.068;2023-01-08T03:40:49;9.20;99.90
11617;DHT22;5864;52.998;9.068;2023-01-08T03:43:19;9.20;99.90
11617;DHT22;5864;52.998;9.068;2023-01-08T03:45:50;9.20;99.90
11617;DHT22;5864;52.998;9.068;2023-01-08T03:48:20;9.10;99.90
11617;DHT22;5864;52.998;9.068;2023-01-08T03:50:48;9.10;99.90
11617;DHT22;5864;52.998;9.068;2023-01-08T03:53:18;9.10;99.90
11617;DHT22;5864;52.998;9.068;2023-01-08T03:55:45;9.10;99.90
11617;DHT22;5864;52.998;9.068;2023-01-08T03:58:13;9.10;99.90
11617;DHT22;5864;52.998;9.068;2023-01-08T04:00:42;9.00;99.90
11617;DHT22;5864;52.998;9.068;2023-01-08T04:03:09;9.00;99.90
11617;DHT22;5864;52.998;9.068;2023-01-08T04:05:37;9.00;99.90
11617;DHT22;5864;52.998;9.068;2023-01-08T04:08:04;9.00;99.90
11617;DHT22;5864;52.998;9.068;2023-01-08T04:10:32;9.00;99.90
11617;DHT22;5864;52.998;9.068;2023-01-08T04:12:59;9.00;99.90
11617;DHT22;5864;52.998;9.068;2023-01-08T04:15:27;9.00;99.90
11617;DHT22;5864;52.998;9.068;2023-01-08T04:17:55;9.00;99.90
11617;DHT22;5864;52.998;9.068;2023-01-08T04:20:23;9.00;99.90
11617;DHT22;5864;52.998;9.068;2023-01-08T04:22:50;9.10;99.90
11617;DHT22;5864;52.998;9.068;2023-01-08T04:25:18;9.10;99.90
11617;DHT22;5864;52.998;9.068;2023-01-08T04:27:45;9.10;99.90
11617;DHT22;5864;52.998;9.068;2023-01-08T04:30:13;9.00;99.90
11617;DHT22;5864;52.998;9.068;2023-01-08T04:32:40;9.00;99.90
11617;DHT22;5864;52.998;9.068;2023-01-08T04:35:09;9.10;99.90
11617;DHT22;5864;52.998;9.068;2023-01-08T04:37:37;9.10;99.90
11617;DHT22;5864;52.998;9.068;2023-01-08T04:40:08;9.10;99.90
11617;DHT22;5864;52.998;9.068;2023-01-08T04:42:35;9.00;99.90
11617;DHT22;5864;52.998;9.068;2023-01-08T04:45:04;9.10;99.90
11617;DHT22;5864;52.998;9.068;2023-01-08T04:47:31;9.10;99.90
11617;DHT22;5864;52.998;9.068;2023-01-08T04:49:59;9.00;99.90
11617;DHT22;5864;52.998;9.068;2023-01-08T04:52:28;9.00;99.90
11617;DHT22;5864;52.998;9.068;2023-01-08T04:54:55;9.00;99.90
11617;DHT22;5864;52.998;9.068;2023-01-08T04:57:23;9.00;99.90
11617;DHT22;5864;52.998;9.068;2023-01-08T04:59:51;9.00;99.90
11617;DHT22;5864;52.998;9.068;2023-01-08T05:02:18;9.00;99.90
11617;DHT22;5864;52.998;9.068;2023-01-08T05:04:46;9.10;99.90
11617;DHT22;5864;52.998;9.068;2023-01-08T05:07:14;9.10;99.90
11617;DHT22;5864;52.998;9.068;2023-01-08T05:09:43;9.10;99.90
11617;DHT22;5864;52.998;9.068;2023-01-08T05:12:11;9.10;99.90
11617;DHT22;5864;52.998;9.068;2023-01-08T05:14:38;9.10;99.90
11617;DHT22;5864;52.998;9.068;2023-01-08T05:17:06;9.10;99.90
11617;DHT22;5864;52.998;9.068;2023-01-08T05:19:33;9.00;99.90
11617;DHT22;5864;52.998;9.068;2023-01-08T05:22:00;9.00;99.90
11617;DHT22;5864;52.998;9.068;2023-01-08T05:24:28;9.00;99.90
11617;DHT22;5864;52.998;9.068;2023-01-08T05:26:57;9.00;99.90
11617;DHT22;5864;52.998;9.068;2023-01-08T05:29:24;9.00;99.90
11617;DHT22;5864;52.998;9.068;2023-01-08T05:31:52;9.00;99.90
11617;DHT22;5864;52.998;9.068;2023-01-08T05:34:19;9.00;99.90
11617;DHT22;5864;52.998;9.068;2023-01-08T05:36:47;9.00;99.90
11617;DHT22;5864;52.998;9.068;2023-01-08T05:39:14;9.00;99.90
11617;DHT22;5864;52.998;9.068;2023-01-08T05:41:42;9.00;99.90
11617;DHT22;5864;52.998;9.068;2023-01-08T05:44:10;9.00;99.90
11617;DHT22;5864;52.998;9.068;2023-01-08T05:46:38;9.00;99.90
11617;DHT22;5864;52.998;9.068;2023-01-08T05:49:05;9.00;99.90
11617;DHT22;5864;52.998;9.068;2023-01-08T05:51:33;9.00;99.90
11617;DHT22;5864;52.998;9.068;2023-01-08T05:54:01;9.60;99.90
11617;DHT22;5864;52.998;9.068;2023-01-08T05:56:28;9.00;99.90
11617;DHT22;5864;52.998;9.068;2023-01-08T05:58:55;9.00;99.90
11617;DHT22;5864;52.998;9.068;2023-01-08T06:01:24;9.00;99.90
11617;DHT22;5864;52.998;9.068;2023-01-08T06:03:54;9.00;99.90
11617;DHT22;5864;52.998;9.068;2023-01-08T06:06:21;9.00;99.90
11617;DHT22;5864;52.998;9.068;2023-01-08T06:08:49;9.10;99.90
11617;DHT22;5864;52.998;9.068;2023-01-08T06:11:16;9.10;99.90
11617;DHT22;5864;52.998;9.068;2023-01-08T06:13:44;9.10;99.90
11617;DHT22;5864;52.998;9.068;2023-01-08T06:16:11;9.10;99.90
11617;DHT22;5864;52.998;9.068;2023-01-08T06:18:40;9.10;99.90
11617;DHT22;5864;52.998;9.068;2023-01-08T06:21:08;9.10;99.90
11617;DHT22;5864;52.998;9.068;2023-01-08T06:23:35;9.00;99.90
11617;DHT22;5864;52.998;9.068;2023-01-08T06:26:03;9.10;99.90
11617;DHT22;5864;52.998;9.068;2023-01-08T06:28:31;9.10;99.90
11617;DHT22;5864;52.998;9.068;2023-01-08T06:30:59;9.10;99.90
11617;DHT22;5864;52.998;9.068;2023-01-08T06:33:27;9.20;99.90
11617;DHT22;5864;52.998;9.068;2023-01-08T06:36:00;9.20;99.90
11617;DHT22;5864;52.998;9.068;2023-01-08T06:38:31;9.20;99.90
11617;DHT22;5864;52.998;9.068;2023-01-08T06:41:03;9.20;99.90
11617;DHT22;5864;52.998;9.068;2023-01-08T06:43:31;9.10;99.90
11617;DHT22;5864;52.998;9.068;2023-01-08T06:45:59;9.20;99.90
11617;DHT22;5864;52.998;9.068;2023-01-08T06:48:26;9.20;99.90
11617;DHT22;5864;52.998;9.068;2023-01-08T06:50:54;9.20;99.90
11617;DHT22;5864;52.998;9.068;2023-01-08T06:53:23;9.10;99.90
11617;DHT22;5864;52.998;9.068;2023-01-08T06:55:51;9.10;99.90
11617;DHT22;5864;52.998;9.068;2023-01-08T06:58:22;9.10;99.90
11617;DHT22;5864;52.998;9.068;2023-01-08T07:00:50;9.10;99.90
11617;DHT22;5864;52.998;9.068;2023-01-08T07:03:20;9.10;99.90
11617;DHT22;5864;52.998;9.068;2023-01-08T07:05:47;9.10;99.90
11617;DHT22;5864;52.998;9.068;2023-01-08T07:08:16;9.10;99.90
11617;DHT22;5864;52.998;9.068;2023-01-08T07:10:45;9.10;99.90
11617;DHT22;5864;52.998;9.068;2023-01-08T07:13:13;9.10;99.90
11617;DHT22;5864;52.998;9.068;2023-01-08T07:15:41;9.20;99.90
11617;DHT22;5864;52.998;9.068;2023-01-08T07:18:10;9.10;99.90
11617;DHT22;5864;52.998;9.068;2023-01-08T07:20:38;9.10;99.90
11617;DHT22;5864;52.998;9.068;2023-01-08T07:23:08;9.10;99.90
11617;DHT22;5864;52.998;9.068;2023-01-08T07:25:36;9.00;99.90
11617;DHT22;5864;52.998;9.068;2023-01-08T07:28:07;9.00;99.90
11617;DHT22;5864;52.998;9.068;2023-01-08T07:30:36;9.00;99.90
11617;DHT22;5864;52.998;9.068;2023-01-08T07:33:04;9.00;99.90
11617;DHT22;5864;52.998;9.068;2023-01-08T07:35:31;9.00;99.90
11617;DHT22;5864;52.998;9.068;2023-01-08T07:38:00;9.00;99.90
11617;DHT22;5864;52.998;9.068;2023-01-08T07:40:28;9.00;99.90
11617;DHT22;5864;52.998;9.068;2023-01-08T07:42:59;9.00;99.90
11617;DHT22;5864;52.998;9.068;2023-01-08T07:45:29;9.00;99.90
11617;DHT22;5864;52.998;9.068;2023-01-08T07:47:56;9.00;99.90
11617;DHT22;5864;52.998;9.068;2023-01-08T07:50:26;9.00;99.90
11617;DHT22;5864;52.998;9.068;2023-01-08T07:52:56;9.00;99.90
11617;DHT22;5864;52.998;9.068;2023-01-08T07:55:24;9.00;99.90
11617;DHT22;5864;52.998;9.068;2023-01-08T07:57:52;10.70;99.90
11617;DHT22;5864;52.998;9.068;2023-01-08T08:00:25;8.90;99.90
11617;DHT22;5864;52.998;9.068;2023-01-08T08:02:54;8.90;99.90
11617;DHT22;5864;52.998;9.068;2023-01-08T08:05:21;8.80;99.90
11617;DHT22;5864;52.998;9.068;2023-01-08T08:07:49;8.80;99.90
11617;DHT22;5864;52.998;9.068;2023-01-08T08:10:16;8.80;99.90
11617;DHT22;5864;52.998;9.068;2023-01-08T08:12:44;8.80;99.90
11617;DHT22;5864;52.998;9.068;2023-01-08T08:15:11;8.80;99.90
11617;DHT22;5864;52.998;9.068;2023-01-08T08:17:39;8.70;99.90
11617;DHT22;5864;52.998;9.068;2023-01-08T08:20:08;8.70;99.90
11617;DHT22;5864;52.998;9.068;2023-01-08T08:22:36;8.70;99.90
11617;DHT22;5864;52.998;9.068;2023-01-08T08:25:04;8.70;99.90
11617;DHT22;5864;52.998;9.068;2023-01-08T08:27:32;8.70;99.90
11617;DHT22;5864;52.998;9.068;2023-01-08T08:29:59;8.70;99.90
11617;DHT22;5864;52.998;9.068;2023-01-08T08:32:26;8.70;99.90
11617;DHT22;5864;52.998;9.068;2023-01-08T08:34:54;8.70;99.90
11617;DHT22;5864;52.998;9.068;2023-01-08T08:37:23;8.70;99.90
11617;DHT22;5864;52.998;9.068;2023-01-08T08:39:51;8.70;99.90
11617;DHT22;5864;52.998;9.068;2023-01-08T08:42:18;8.70;99.90
11617;DHT22;5864;52.998;9.068;2023-01-08T08:44:46;8.70;99.90
11617;DHT22;5864;52.998;9.068;2023-01-08T08:47:13;8.70;99.90
11617;DHT22;5864;52.998;9.068;2023-01-08T08:49:41;8.70;99.90
11617;DHT22;5864;52.998;9.068;2023-01-08T08:52:09;8.80;99.90
11617;DHT22;5864;52.998;9.068;2023-01-08T08:54:37;8.80;99.90
11617;DHT22;5864;52.998;9.068;2023-01-08T08:57:06;8.80;99.90
11617;DHT22;5864;52.998;9.068;2023-01-08T08:59:34;8.80;99.90
11617;DHT22;5864;52.998;9.068;2023-01-08T09:02:03;8.80;99.90
11617;DHT22;5864;52.998;9.068;2023-01-08T09:04:31;8.80;99.90
11617;DHT22;5864;52.998;9.068;2023-01-08T09:06:59;8.80;99.90
11617;DHT22;5864;52.998;9.068;2023-01-08T09:09:27;8.90;99.90
11617;DHT22;5864;52.998;9.068;2023-01-08T09:11:56;8.90;99.90
11617;DHT22;5864;52.998;9.068;2023-01-08T09:14:24;8.90;99.90
11617;DHT22;5864;52.998;9.068;2023-01-08T09:16:51;8.90;99.90
11617;DHT22;5864;52.998;9.068;2023-01-08T09:19:19;9.00;99.90
11617;DHT22;5864;52.998;9.068;2023-01-08T09:21:48;9.00;99.90
11617;DHT22;5864;52.998;9.068;2023-01-08T09:24:15;9.00;99.90
11617;DHT22;5864;52.998;9.068;2023-01-08T09:26:43;9.00;99.90
11617;DHT22;5864;52.998;9.068;2023-01-08T09:29:11;9.10;99.90
11617;DHT22;5864;52.998;9.068;2023-01-08T09:31:39;9.10;99.90
11617;DHT22;5864;52.998;9.068;2023-01-08T09:34:06;9.10;99.90
11617;DHT22;5864;52.998;9.068;2023-01-08T09:36:34;9.10;99.90
11617;DHT22;5864;52.998;9.068;2023-01-08T09:39:01;9.60;99.90
11617;DHT22;5864;52.998;9.068;2023-01-08T09:41:31;9.00;99.90
11617;DHT22;5864;52.998;9.068;2023-01-08T09:44:02;9.00;99.90
11617;DHT22;5864;52.998;9.068;2023-01-08T09:46:32;9.00;99.90
11617;DHT22;5864;52.998;9.068;2023-01-08T09:49:04;9.00;99.90
11617;DHT22;5864;52.998;9.068;2023-01-08T09:51:33;9.00;99.90
11617;DHT22;5864;52.998;9.068;2023-01-08T09:54:02;9.00;99.90
11617;DHT22;5864;52.998;9.068;2023-01-08T09:56:32;9.00;99.90
11617;DHT22;5864;52.998;9.068;2023-01-08T09:59:02;9.00;99.90
11617;DHT22;5864;52.998;9.068;2023-01-08T10:01:36;9.00;99.90
11617;DHT22;5864;52.998;9.068;2023-01-08T10:04:05;9.00;99.90
11617;DHT22;5864;52.998;9.068;2023-01-08T10:06:33;9.00;99.90
11617;DHT22;5864;52.998;9.068;2023-01-08T10:09:01;9.10;99.90
11617;DHT22;5864;52.998;9.068;2023-01-08T10:11:39;9.20;99.90
11617;DHT22;5864;52.998;9.068;2023-01-08T10:14:19;9.50;99.90
11617;DHT22;5864;52.998;9.068;2023-01-08T10:16:50;10.10;99.90
11617;DHT22;5864;52.998;9.068;2023-01-08T10:19:19;10.40;99.90
11617;DHT22;5864;52.998;9.068;2023-01-08T10:21:46;10.50;99.90
11617;DHT22;5864;52.998;9.068;2023-01-08T10:24:14;10.50;99.90
11617;DHT22;5864;52.998;9.068;2023-01-08T10:26:41;10.50;99.90
11617;DHT22;5864;52.998;9.068;2023-01-08T10:29:12;10.80;99.90
11617;DHT22;5864;52.998;9.068;2023-01-08T10:31:46;10.90;99.90
11617;DHT22;5864;52.998;9.068;2023-01-08T10:34:24;10.90;99.90
11617;DHT22;5864;52.998;9.068;2023-01-08T10:36:52;11.00;99.90
11617;DHT22;5864;52.998;9.068;2023-01-08T10:39:23;10.90;99.90
11617;DHT22;5864;52.998;9.068;2023-01-08T10:41:54;10.80;99.90
11617;DHT22;5864;52.998;9.068;2023-01-08T10:44:23;10.80;99.90
11617;DHT22;5864;52.998;9.068;2023-01-08T10:46:54;10.70;99.90
11617;DHT22;5864;52.998;9.068;2023-01-08T10:49:30;10.70;99.90
11617;DHT22;5864;52.998;9.068;2023-01-08T10:51:58;10.80;99.90
11617;DHT22;5864;52.998;9.068;2023-01-08T10:54:33;10.70;99.90
11617;DHT22;5864;52.998;9.068;2023-01-08T10:57:02;10.70;99.90
11617;DHT22;5864;52.998;9.068;2023-01-08T10:59:29;10.70;99.90
11617;DHT22;5864;52.998;9.068;2023-01-08T11:01:57;10.80;99.90
11617;DHT22;5864;52.998;9.068;2023-01-08T11:04:31;10.80;99.90
11617;DHT22;5864;52.998;9.068;2023-01-08T11:07:00;10.80;99.90
11617;DHT22;5864;52.998;9.068;2023-01-08T11:09:31;10.70;99.90
11617;DHT22;5864;52.998;9.068;2023-01-08T11:11:59;10.60;99.90
11617;DHT22;5864;52.998;9.068;2023-01-08T11:14:29;10.50;99.90
11617;DHT22;5864;52.998;9.068;2023-01-08T11:16:57;10.50;99.90
11617;DHT22;5864;52.998;9.068;2023-01-08T11:19:26;10.50;99.90
11617;DHT22;5864;52.998;9.068;2023-01-08T11:21:58;10.50;99.90
11617;DHT22;5864;52.998;9.068;2023-01-08T11:24:28;10.50;99.90
11617;DHT22;5864;52.998;9.068;2023-01-08T11:27:02;10.50;99.90
11617;DHT22;5864;52.998;9.068;2023-01-08T11:29:37;10.40;99.90
11617;DHT22;5864;52.998;9.068;2023-01-08T11:32:28;10.50;99.90
11617;DHT22;5864;52.998;9.068;2023-01-08T11:35:00;10.40;99.90
11617;DHT22;5864;52.998;9.068;2023-01-08T11:37:34;10.40;99.90
11617;DHT22;5864;52.998;9.068;2023-01-08T11:40:09;10.40;99.90
11617;DHT22;5864;52.998;9.068;2023-01-08T11:45:33;10.30;99.90
11617;DHT22;5864;52.998;9.068;2023-01-08T11:48:16;10.30;99.90
11617;DHT22;5864;52.998;9.068;2023-01-08T11:51:00;10.30;99.90
11617;DHT22;5864;52.998;9.068;2023-01-08T11:53:35;10.40;99.90
11617;DHT22;5864;52.998;9.068;2023-01-08T11:56:18;10.30;99.90
11617;DHT22;5864;52.998;9.068;2023-01-08T11:58:58;10.40;99.90
11617;DHT22;5864;52.998;9.068;2023-01-08T12:01:38;10.40;99.90
11617;DHT22;5864;52.998;9.068;2023-01-08T12:04:32;11.30;99.90
11617;DHT22;5864;52.998;9.068;2023-01-08T12:07:08;10.40;99.90
11617;DHT22;5864;52.998;9.068;2023-01-08T12:09:40;10.40;99.90
11617;DHT22;5864;52.998;9.068;2023-01-08T12:12:20;10.30;99.90
11617;DHT22;5864;52.998;9.068;2023-01-08T12:14:59;10.30;99.90
11617;DHT22;5864;52.998;9.068;2023-01-08T12:17:48;10.30;99.90
11617;DHT22;5864;52.998;9.068;2023-01-08T12:20:27;10.30;99.90
11617;DHT22;5864;52.998;9.068;2023-01-08T12:23:01;10.30;99.90
11617;DHT22;5864;52.998;9.068;2023-01-08T12:25:47;10.30;99.90
11617;DHT22;5864;52.998;9.068;2023-01-08T12:28:35;10.30;99.90
11617;DHT22;5864;52.998;9.068;2023-01-08T12:31:39;10.30;99.90
11617;DHT22;5864;52.998;9.068;2023-01-08T12:34:11;10.30;99.90
11617;DHT22;5864;52.998;9.068;2023-01-08T12:36:41;10.30;99.90
11617;DHT22;5864;52.998;9.068;2023-01-08T12:39:15;10.30;99.90
11617;DHT22;5864;52.998;9.068;2023-01-08T12:41:49;10.30;99.90
11617;DHT22;5864;52.998;9.068;2023-01-08T12:44:22;10.30;99.90
11617;DHT22;5864;52.998;9.068;2023-01-08T12:46:51;10.30;99.90
11617;DHT22;5864;52.998;9.068;2023-01-08T12:49:23;10.40;99.90
11617;DHT22;5864;52.998;9.068;2023-01-08T12:51:58;10.40;99.90
11617;DHT22;5864;52.998;9.068;2023-01-08T12:54:32;10.40;99.90
11617;DHT22;5864;52.998;9.068;2023-01-08T12:57:09;10.30;99.90
11617;DHT22;5864;52.998;9.068;2023-01-08T12:59:44;10.40;99.90
11617;DHT22;5864;52.998;9.068;2023-01-08T13:02:22;10.40;99.90
11617;DHT22;5864;52.998;9.068;2023-01-08T13:04:52;10.30;99.90
11617;DHT22;5864;52.998;9.068;2023-01-08T13:07:23;10.30;99.90
11617;DHT22;5864;52.998;9.068;2023-01-08T13:09:56;10.30;99.90
11617;DHT22;5864;52.998;9.068;2023-01-08T13:12:33;10.30;99.90
11617;DHT22;5864;52.998;9.068;2023-01-08T13:15:01;10.30;99.90
11617;DHT22;5864;52.998;9.068;2023-01-08T13:17:28;10.40;99.90
11617;DHT22;5864;52.998;9.068;2023-01-08T13:19:59;10.50;99.90
11617;DHT22;5864;52.998;9.068;2023-01-08T13:22:29;10.40;99.90
11617;DHT22;5864;52.998;9.068;2023-01-08T13:27:52;10.40;99.90
11617;DHT22;5864;52.998;9.068;2023-01-08T13:30:33;10.50;99.90
11617;DHT22;5864;52.998;9.068;2023-01-08T13:33:01;10.40;99.90
11617;DHT22;5864;52.998;9.068;2023-01-08T13:35:30;10.50;99.90
11617;DHT22;5864;52.998;9.068;2023-01-08T13:38:13;10.50;99.90
11617;DHT22;5864;52.998;9.068;2023-01-08T13:40:53;10.60;99.90
11617;DHT22;5864;52.998;9.068;2023-01-08T13:43:26;10.60;99.90
11617;DHT22;5864;52.998;9.068;2023-01-08T13:46:07;10.70;99.90
11617;DHT22;5864;52.998;9.068;2023-01-08T13:48:36;10.70;99.90
11617;DHT22;5864;52.998;9.068;2023-01-08T13:51:27;10.60;99.90
11617;DHT22;5864;52.998;9.068;2023-01-08T13:53:56;10.60;99.90
11617;DHT22;5864;52.998;9.068;2023-01-08T13:56:25;10.60;99.90
11617;DHT22;5864;52.998;9.068;2023-01-08T13:58:54;10.60;99.90
11617;DHT22;5864;52.998;9.068;2023-01-08T14:01:22;10.70;99.90
11617;DHT22;5864;52.998;9.068;2023-01-08T14:03:49;10.70;99.90
11617;DHT22;5864;52.998;9.068;2023-01-08T14:06:19;10.60;99.90
11617;DHT22;5864;52.998;9.068;2023-01-08T14:08:51;10.60;99.90
11617;DHT22;5864;52.998;9.068;2023-01-08T14:11:19;10.10;99.90
11617;DHT22;5864;52.998;9.068;2023-01-08T14:13:49;10.60;99.90
11617;DHT22;5864;52.998;9.068;2023-01-08T14:16:19;10.50;99.90
11617;DHT22;5864;52.998;9.068;2023-01-08T14:18:47;10.50;99.90
11617;DHT22;5864;52.998;9.068;2023-01-08T14:21:20;10.50;99.90
11617;DHT22;5864;52.998;9.068;2023-01-08T14:23:49;11.10;99.90
11617;DHT22;5864;52.998;9.068;2023-01-08T14:26:28;10.30;99.90
11617;DHT22;5864;52.998;9.068;2023-01-08T14:29:13;10.30;99.90
11617;DHT22;5864;52.998;9.068;2023-01-08T14:31:47;10.10;99.90
11617;DHT22;5864;52.998;9.068;2023-01-08T14:34:15;10.00;99.90
11617;DHT22;5864;52.998;9.068;2023-01-08T14:36:43;9.90;99.90
11617;DHT22;5864;52.998;9.068;2023-01-08T14:39:11;9.80;99.90
11617;DHT22;5864;52.998;9.068;2023-01-08T14:41:40;9.70;99.90
11617;DHT22;5864;52.998;9.068;2023-01-08T14:44:26;9.70;99.90
11617;DHT22;5864;52.998;9.068;2023-01-08T14:46:56;9.70;99.90
11617;DHT22;5864;52.998;9.068;2023-01-08T14:49:26;9.60;99.90
11617;DHT22;5864;52.998;9.068;2023-01-08T14:51:56;9.60;99.90
11617;DHT22;5864;52.998;9.068;2023-01-08T14:54:28;9.50;99.90
11617;DHT22;5864;52.998;9.068;2023-01-08T14:56:57;9.50;99.90
11617;DHT22;5864;52.998;9.068;2023-01-08T14:59:28;9.50;99.90
11617;DHT22;5864;52.998;9.068;2023-01-08T15:02:00;9.40;99.90
11617;DHT22;5864;52.998;9.068;2023-01-08T15:04:29;9.40;99.90
11617;DHT22;5864;52.998;9.068;2023-01-08T15:07:07;9.40;99.90
11617;DHT22;5864;52.998;9.068;2023-01-08T15:09:35;9.40;99.90
11617;DHT22;5864;52.998;9.068;2023-01-08T15:12:05;9.40;99.90
11617;DHT22;5864;52.998;9.068;2023-01-08T15:14:33;9.40;99.90
11617;DHT22;5864;52.998;9.068;2023-01-08T15:17:09;9.40;99.90
11617;DHT22;5864;52.998;9.068;2023-01-08T15:19:40;9.30;99.90
11617;DHT22;5864;52.998;9.068;2023-01-08T15:22:14;9.30;99.90
11617;DHT22;5864;52.998;9.068;2023-01-08T15:24:53;9.20;99.90
11617;DHT22;5864;52.998;9.068;2023-01-08T15:27:23;9.20;99.90
11617;DHT22;5864;52.998;9.068;2023-01-08T15:29:53;9.20;99.90
11617;DHT22;5864;52.998;9.068;2023-01-08T15:32:29;9.20;99.90
11617;DHT22;5864;52.998;9.068;2023-01-08T15:35:00;9.20;99.90
11617;DHT22;5864;52.998;9.068;2023-01-08T15:37:27;9.20;99.90
11617;DHT22;5864;52.998;9.068;2023-01-08T15:39:55;9.20;99.90
11617;DHT22;5864;52.998;9.068;2023-01-08T15:42:26;9.20;99.90
11617;DHT22;5864;52.998;9.068;2023-01-08T15:45:15;9.20;99.90
11617;DHT22;5864;52.998;9.068;2023-01-08T15:47:44;9.20;99.90
11617;DHT22;5864;52.998;9.068;2023-01-08T15:50:13;9.20;99.90
11617;DHT22;5864;52.998;9.068;2023-01-08T15:52:42;9.20;99.90
11617;DHT22;5864;52.998;9.068;2023-01-08T15:55:15;9.20;99.90
11617;DHT22;5864;52.998;9.068;2023-01-08T15:57:42;9.20;99.90
11617;DHT22;5864;52.998;9.068;2023-01-08T16:00:12;9.10;99.90
11617;DHT22;5864;52.998;9.068;2023-01-08T16:02:40;9.10;99.90
11617;DHT22;5864;52.998;9.068;2023-01-08T16:05:10;9.10;99.90
11617;DHT22;5864;52.998;9.068;2023-01-08T16:07:37;9.10;99.90
11617;DHT22;5864;52.998;9.068;2023-01-08T16:10:05;9.10;99.90
11617;DHT22;5864;52.998;9.068;2023-01-08T16:12:34;9.10;99.90
11617;DHT22;5864;52.998;9.068;2023-01-08T16:15:02;9.10;99.90
11617;DHT22;5864;52.998;9.068;2023-01-08T16:17:33;9.00;99.90
11617;DHT22;5864;52.998;9.068;2023-01-08T16:20:01;9.00;99.90
11617;DHT22;5864;52.998;9.068;2023-01-08T16:22:30;8.90;99.90